sensor_id;sensor_type;location;lat;lon;timestamp;temperature;humidity
9527;DHT22;4802;51.494;6.770;2023-06-14T00:02:16;20.50;99.90
9527;DHT22;4802;51.494;6.770;2023-06-14T00:04:47;20.50;99.90
9527;DHT22;4802;51.494;6.770;2023-06-14T00:07:34;20.10;99.90
9527;DHT22;4802;51.494;6.770;2023-06-14T00:10:06;20.40;99.90
9527;DHT22;4802;51.494;6.770;2023-06-14T00:12:37;20.30;99.90
9527;DHT22;4802;51.494;6.770;2023-06-14T00:15:09;20.30;99.90
9527;DHT22;4802;51.494;6.770;2023-06-14T00:17:41;20.30;99.90
9527;DHT22;4802;51.494;6.770;2023-06-14T00:20:13;20.30;99.90
9527;DHT22;4802;51.494;6.770;2023-06-14T00:22:43;20.30;99.90
9527;DHT22;4802;51.494;6.770;2023-06-14T00:25:12;20.20;99.90
9527;DHT22;4802;51.494;6.770;2023-06-14T00:27:57;20.10;99.90
9527;DHT22;4802;51.494;6.770;2023-06-14T00:30:26;20.00;99.90
9527;DHT22;4802;51.494;6.770;2023-06-14T00:33:01;20.00;99.90
9527;DHT22;4802;51.494;6.770;2023-06-14T00:35:32;20.20;99.90
9527;DHT22;4802;51.494;6.770;2023-06-14T00:38:01;20.00;99.90
9527;DHT22;4802;51.494;6.770;2023-06-14T00:40:30;20.00;99.90
9527;DHT22;4802;51.494;6.770;2023-06-14T00:43:00;19.90;99.90
9527;DHT22;4802;51.494;6.770;2023-06-14T00:45:30;19.90;99.90
9527;DHT22;4802;51.494;6.770;2023-06-14T00:48:04;19.90;99.90
9527;DHT22;4802;51.494;6.770;2023-06-14T00:50:36;19.90;99.90
9527;DHT22;4802;51.494;6.770;2023-06-14T00:53:05;19.90;99.90
9527;DHT22;4802;51.494;6.770;2023-06-14T00:55:34;19.90;99.90
9527;DHT22;4802;51.494;6.770;2023-06-14T00:58:03;19.80;99.90
9527;DHT22;4802;51.494;6.770;2023-06-14T01:00:32;19.80;99.90
9527;DHT22;4802;51.494;6.770;2023-06-14T01:03:01;19.80;99.90
9527;DHT22;4802;51.494;6.770;2023-06-14T01:05:35;19.80;99.90
9527;DHT22;4802;51.494;6.770;2023-06-14T01:08:20;19.80;99.90
9527;DHT22;4802;51.494;6.770;2023-06-14T01:10:59;19.70;99.90
9527;DHT22;4802;51.494;6.770;2023-06-14T01:13:34;19.70;99.90
9527;DHT22;4802;51.494;6.770;2023-06-14T01:16:05;19.70;99.90
9527;DHT22;4802;51.494;6.770;2023-06-14T01:18:35;19.70;99.90
9527;DHT22;4802;51.494;6.770;2023-06-14T01:21:06;19.60;99.90
9527;DHT22;4802;51.494;6.770;2023-06-14T01:23:39;19.60;99.90
9527;DHT22;4802;51.494;6.770;2023-06-14T01:26:09;19.50;99.90
9527;DHT22;4802;51.494;6.770;2023-06-14T01:28:50;19.50;99.90
9527;DHT22;4802;51.494;6.770;2023-06-14T01:31:26;19.60;99.90
9527;DHT22;4802;51.494;6.770;2023-06-14T01:34:12;19.50;99.90
9527;DHT22;4802;51.494;6.770;2023-06-14T01:36:43;19.50;99.90
9527;DHT22;4802;51.494;6.770;2023-06-14T01:39:15;19.50;99.90
9527;DHT22;4802;51.494;6.770;2023-06-14T01:41:44;19.50;99.90
9527;DHT22;4802;51.494;6.770;2023-06-14T01:44:14;19.50;99.90
9527;DHT22;4802;51.494;6.770;2023-06-14T01:46:44;19.50;99.90
9527;DHT22;4802;51.494;6.770;2023-06-14T01:49:20;19.40;99.90
9527;DHT22;4802;51.494;6.770;2023-06-14T01:51:49;19.40;99.90
9527;DHT22;4802;51.494;6.770;2023-06-14T01:54:19;19.30;99.90
9527;DHT22;4802;51.494;6.770;2023-06-14T01:56:48;19.30;99.90
9527;DHT22;4802;51.494;6.770;2023-06-14T01:59:18;19.20;99.90
9527;DHT22;4802;51.494;6.770;2023-06-14T02:01:47;19.30;99.90
9527;DHT22;4802;51.494;6.770;2023-06-14T02:04:16;19.80;99.90
9527;DHT22;4802;51.494;6.770;2023-06-14T02:06:44;19.20;99.90
9527;DHT22;4802;51.494;6.770;2023-06-14T02:09:13;19.20;99.90
9527;DHT22;4802;51.494;6.770;2023-06-14T02:11:44;19.20;99.90
9527;DHT22;4802;51.494;6.770;2023-06-14T02:14:13;19.20;99.90
9527;DHT22;4802;51.494;6.770;2023-06-14T02:16:42;19.20;99.90
9527;DHT22;4802;51.494;6.770;2023-06-14T02:19:16;18.90;99.90
9527;DHT22;4802;51.494;6.770;2023-06-14T02:21:45;19.00;99.90
9527;DHT22;4802;51.494;6.770;2023-06-14T02:24:14;19.10;99.90
9527;DHT22;4802;51.494;6.770;2023-06-14T02:26:58;19.00;99.90
9527;DHT22;4802;51.494;6.770;2023-06-14T02:29:27;18.90;99.90
9527;DHT22;4802;51.494;6.770;2023-06-14T02:31:56;18.80;99.90
9527;DHT22;4802;51.494;6.770;2023-06-14T02:34:25;18.90;99.90
9527;DHT22;4802;51.494;6.770;2023-06-14T02:36:55;18.90;99.90
9527;DHT22;4802;51.494;6.770;2023-06-14T02:39:24;18.90;99.90
9527;DHT22;4802;51.494;6.770;2023-06-14T02:41:53;18.80;99.90
9527;DHT22;4802;51.494;6.770;2023-06-14T02:44:26;18.80;99.90
9527;DHT22;4802;51.494;6.770;2023-06-14T02:46:55;18.80;99.90
9527;DHT22;4802;51.494;6.770;2023-06-14T02:49:25;18.70;99.90
9527;DHT22;4802;51.494;6.770;2023-06-14T02:51:54;18.70;99.90
9527;DHT22;4802;51.494;6.770;2023-06-14T02:54:23;18.60;99.90
9527;DHT22;4802;51.494;6.770;2023-06-14T02:56:52;18.60;99.90
9527;DHT22;4802;51.494;6.770;2023-06-14T02:59:21;18.60;99.90
9527;DHT22;4802;51.494;6.770;2023-06-14T03:01:53;18.60;99.90
9527;DHT22;4802;51.494;6.770;2023-06-14T03:04:22;18.50;99.90
9527;DHT22;4802;51.494;6.770;2023-06-14T03:06:53;18.50;99.90
9527;DHT22;4802;51.494;6.770;2023-06-14T03:09:22;18.40;99.90
9527;DHT22;4802;51.494;6.770;2023-06-14T03:11:51;18.40;99.90
9527;DHT22;4802;51.494;6.770;2023-06-14T03:14:21;18.40;99.90
9527;DHT22;4802;51.494;6.770;2023-06-14T03:16:50;18.40;99.90
9527;DHT22;4802;51.494;6.770;2023-06-14T03:19:25;18.40;99.90
9527;DHT22;4802;51.494;6.770;2023-06-14T03:21:54;18.40;99.90
9527;DHT22;4802;51.494;6.770;2023-06-14T03:24:24;18.30;99.90
9527;DHT22;4802;51.494;6.770;2023-06-14T03:26:55;18.40;99.90
9527;DHT22;4802;51.494;6.770;2023-06-14T03:29:24;18.40;99.90
9527;DHT22;4802;51.494;6.770;2023-06-14T03:31:59;18.30;99.90
9527;DHT22;4802;51.494;6.770;2023-06-14T03:34:30;18.30;99.90
9527;DHT22;4802;51.494;6.770;2023-06-14T03:37:01;18.30;99.90
9527;DHT22;4802;51.494;6.770;2023-06-14T03:39:30;18.30;99.90
9527;DHT22;4802;51.494;6.770;2023-06-14T03:41:59;18.30;99.90
9527;DHT22;4802;51.494;6.770;2023-06-14T03:44:28;18.30;99.90
9527;DHT22;4802;51.494;6.770;2023-06-14T03:46:57;18.30;99.90
9527;DHT22;4802;51.494;6.770;2023-06-14T03:49:25;18.20;99.90
9527;DHT22;4802;51.494;6.770;2023-06-14T03:51:56;18.30;99.90
9527;DHT22;4802;51.494;6.770;2023-06-14T03:54:25;18.20;99.90
9527;DHT22;4802;51.494;6.770;2023-06-14T03:57:04;18.10;99.90
9527;DHT22;4802;51.494;6.770;2023-06-14T03:59:33;18.20;99.90
9527;DHT22;4802;51.494;6.770;2023-06-14T04:02:02;18.40;99.90
9527;DHT22;4802;51.494;6.770;2023-06-14T04:04:31;18.40;99.90
9527;DHT22;4802;51.494;6.770;2023-06-14T04:07:04;18.40;99.90
9527;DHT22;4802;51.494;6.770;2023-06-14T04:09:35;18.40;99.90
9527;DHT22;4802;51.494;6.770;2023-06-14T04:12:05;18.40;99.90
9527;DHT22;4802;51.494;6.770;2023-06-14T04:14:36;18.60;99.90
9527;DHT22;4802;51.494;6.770;2023-06-14T04:17:07;19.30;99.90
9527;DHT22;4802;51.494;6.770;2023-06-14T04:19:36;19.80;99.90
9527;DHT22;4802;51.494;6.770;2023-06-14T04:22:09;20.50;99.90
9527;DHT22;4802;51.494;6.770;2023-06-14T04:24:38;20.80;99.90
9527;DHT22;4802;51.494;6.770;2023-06-14T04:27:09;21.50;99.90
9527;DHT22;4802;51.494;6.770;2023-06-14T04:29:38;21.90;99.90
9527;DHT22;4802;51.494;6.770;2023-06-14T04:32:07;22.20;99.90
9527;DHT22;4802;51.494;6.770;2023-06-14T04:34:37;22.50;99.90
9527;DHT22;4802;51.494;6.770;2023-06-14T04:37:10;23.00;99.90
9527;DHT22;4802;51.494;6.770;2023-06-14T04:39:40;22.90;99.90
9527;DHT22;4802;51.494;6.770;2023-06-14T04:42:09;23.30;99.90
9527;DHT22;4802;51.494;6.770;2023-06-14T04:44:41;23.60;99.90
9527;DHT22;4802;51.494;6.770;2023-06-14T04:47:11;24.00;99.90
9527;DHT22;4802;51.494;6.770;2023-06-14T04:49:40;24.50;99.90
9527;DHT22;4802;51.494;6.770;2023-06-14T04:52:10;24.60;99.90
9527;DHT22;4802;51.494;6.770;2023-06-14T04:54:40;24.80;99.90
9527;DHT22;4802;51.494;6.770;2023-06-14T04:57:10;25.20;99.90
9527;DHT22;4802;51.494;6.770;2023-06-14T04:59:41;25.00;99.90
9527;DHT22;4802;51.494;6.770;2023-06-14T05:02:11;25.40;99.90
9527;DHT22;4802;51.494;6.770;2023-06-14T05:04:41;25.10;99.90
9527;DHT22;4802;51.494;6.770;2023-06-14T05:07:14;25.40;99.90
9527;DHT22;4802;51.494;6.770;2023-06-14T05:09:44;25.70;99.90
9527;DHT22;4802;51.494;6.770;2023-06-14T05:12:14;26.00;99.90
9527;DHT22;4802;51.494;6.770;2023-06-14T05:14:47;26.90;99.90
9527;DHT22;4802;51.494;6.770;2023-06-14T05:17:15;27.40;99.90
9527;DHT22;4802;51.494;6.770;2023-06-14T05:19:44;26.80;99.90
9527;DHT22;4802;51.494;6.770;2023-06-14T05:22:17;26.60;99.90
9527;DHT22;4802;51.494;6.770;2023-06-14T05:24:46;26.60;99.90
9527;DHT22;4802;51.494;6.770;2023-06-14T05:27:16;26.90;99.90
9527;DHT22;4802;51.494;6.770;2023-06-14T05:29:45;26.60;99.90
9527;DHT22;4802;51.494;6.770;2023-06-14T05:32:15;26.80;99.90
9527;DHT22;4802;51.494;6.770;2023-06-14T05:34:44;27.30;99.90
9527;DHT22;4802;51.494;6.770;2023-06-14T05:37:13;26.90;99.90
9527;DHT22;4802;51.494;6.770;2023-06-14T05:39:44;27.10;99.90
9527;DHT22;4802;51.494;6.770;2023-06-14T05:42:13;28.00;99.90
9527;DHT22;4802;51.494;6.770;2023-06-14T05:44:42;28.50;99.90
9527;DHT22;4802;51.494;6.770;2023-06-14T05:47:17;29.10;99.90
9527;DHT22;4802;51.494;6.770;2023-06-14T05:49:46;28.80;99.90
9527;DHT22;4802;51.494;6.770;2023-06-14T05:52:16;29.10;99.90
9527;DHT22;4802;51.494;6.770;2023-06-14T05:54:48;29.40;99.90
9527;DHT22;4802;51.494;6.770;2023-06-14T05:57:18;29.10;99.90
9527;DHT22;4802;51.494;6.770;2023-06-14T05:59:50;29.20;99.90
9527;DHT22;4802;51.494;6.770;2023-06-14T06:02:20;30.00;99.90
9527;DHT22;4802;51.494;6.770;2023-06-14T06:04:50;31.10;99.90
9527;DHT22;4802;51.494;6.770;2023-06-14T06:07:19;31.50;99.90
9527;DHT22;4802;51.494;6.770;2023-06-14T06:09:49;30.90;99.90
9527;DHT22;4802;51.494;6.770;2023-06-14T06:12:19;31.40;99.90
9527;DHT22;4802;51.494;6.770;2023-06-14T06:14:48;31.40;99.90
9527;DHT22;4802;51.494;6.770;2023-06-14T06:17:17;31.30;99.90
9527;DHT22;4802;51.494;6.770;2023-06-14T06:19:46;31.30;99.90
9527;DHT22;4802;51.494;6.770;2023-06-14T06:22:15;30.40;99.90
9527;DHT22;4802;51.494;6.770;2023-06-14T06:24:44;29.30;99.90
9527;DHT22;4802;51.494;6.770;2023-06-14T06:27:14;28.90;99.90
9527;DHT22;4802;51.494;6.770;2023-06-14T06:29:46;29.00;99.90
9527;DHT22;4802;51.494;6.770;2023-06-14T06:32:17;28.80;99.90
9527;DHT22;4802;51.494;6.770;2023-06-14T06:34:46;29.60;99.90
9527;DHT22;4802;51.494;6.770;2023-06-14T06:37:15;30.30;99.90
9527;DHT22;4802;51.494;6.770;2023-06-14T06:39:45;29.90;99.90
9527;DHT22;4802;51.494;6.770;2023-06-14T06:42:18;30.60;99.90
9527;DHT22;4802;51.494;6.770;2023-06-14T06:44:55;29.90;99.90
9527;DHT22;4802;51.494;6.770;2023-06-14T06:47:29;31.10;99.90
9527;DHT22;4802;51.494;6.770;2023-06-14T06:50:01;31.10;99.90
9527;DHT22;4802;51.494;6.770;2023-06-14T06:52:33;30.90;99.90
9527;DHT22;4802;51.494;6.770;2023-06-14T06:55:06;31.60;99.90
9527;DHT22;4802;51.494;6.770;2023-06-14T06:57:41;32.20;99.90
9527;DHT22;4802;51.494;6.770;2023-06-14T07:00:13;29.50;99.90
9527;DHT22;4802;51.494;6.770;2023-06-14T07:02:46;28.20;99.90
9527;DHT22;4802;51.494;6.770;2023-06-14T07:05:16;27.80;99.90
9527;DHT22;4802;51.494;6.770;2023-06-14T07:07:48;28.10;99.90
9527;DHT22;4802;51.494;6.770;2023-06-14T07:10:21;28.10;99.90
9527;DHT22;4802;51.494;6.770;2023-06-14T07:13:01;27.90;99.90
9527;DHT22;4802;51.494;6.770;2023-06-14T07:15:40;27.40;99.90
9527;DHT22;4802;51.494;6.770;2023-06-14T07:18:10;26.30;99.90
9527;DHT22;4802;51.494;6.770;2023-06-14T07:20:43;26.70;99.90
9527;DHT22;4802;51.494;6.770;2023-06-14T07:23:19;26.90;99.90
9527;DHT22;4802;51.494;6.770;2023-06-14T07:25:52;27.00;99.90
9527;DHT22;4802;51.494;6.770;2023-06-14T07:28:31;28.00;99.90
9527;DHT22;4802;51.494;6.770;2023-06-14T07:31:07;27.60;99.90
9527;DHT22;4802;51.494;6.770;2023-06-14T07:33:38;27.80;99.90
9527;DHT22;4802;51.494;6.770;2023-06-14T07:36:13;27.80;99.90
9527;DHT22;4802;51.494;6.770;2023-06-14T07:38:48;28.20;99.90
9527;DHT22;4802;51.494;6.770;2023-06-14T07:41:18;28.00;99.90
9527;DHT22;4802;51.494;6.770;2023-06-14T07:43:50;28.50;99.90
9527;DHT22;4802;51.494;6.770;2023-06-14T07:46:23;28.70;99.90
9527;DHT22;4802;51.494;6.770;2023-06-14T07:48:53;29.90;99.90
9527;DHT22;4802;51.494;6.770;2023-06-14T07:51:28;31.60;99.90
9527;DHT22;4802;51.494;6.770;2023-06-14T07:53:59;32.50;99.90
9527;DHT22;4802;51.494;6.770;2023-06-14T07:56:40;33.00;99.90
9527;DHT22;4802;51.494;6.770;2023-06-14T07:59:12;32.40;99.90
9527;DHT22;4802;51.494;6.770;2023-06-14T08:01:47;32.00;99.90
9527;DHT22;4802;51.494;6.770;2023-06-14T08:04:17;32.00;99.90
9527;DHT22;4802;51.494;6.770;2023-06-14T08:06:45;31.90;99.90
9527;DHT22;4802;51.494;6.770;2023-06-14T08:09:15;31.80;99.90
9527;DHT22;4802;51.494;6.770;2023-06-14T08:11:45;30.40;99.90
9527;DHT22;4802;51.494;6.770;2023-06-14T08:14:15;29.20;99.90
9527;DHT22;4802;51.494;6.770;2023-06-14T08:16:44;30.30;99.90
9527;DHT22;4802;51.494;6.770;2023-06-14T08:19:13;31.10;99.90
9527;DHT22;4802;51.494;6.770;2023-06-14T08:21:44;31.60;99.90
9527;DHT22;4802;51.494;6.770;2023-06-14T08:24:21;32.30;99.90
9527;DHT22;4802;51.494;6.770;2023-06-14T08:26:52;32.30;99.90
9527;DHT22;4802;51.494;6.770;2023-06-14T08:29:26;32.20;99.90
9527;DHT22;4802;51.494;6.770;2023-06-14T08:31:56;32.50;99.90
9527;DHT22;4802;51.494;6.770;2023-06-14T08:34:25;31.00;99.90
9527;DHT22;4802;51.494;6.770;2023-06-14T08:36:55;29.90;99.90
9527;DHT22;4802;51.494;6.770;2023-06-14T08:39:24;30.50;99.90
9527;DHT22;4802;51.494;6.770;2023-06-14T08:41:57;30.90;99.90
9527;DHT22;4802;51.494;6.770;2023-06-14T08:44:29;31.70;99.90
9527;DHT22;4802;51.494;6.770;2023-06-14T08:46:59;31.20;99.90
9527;DHT22;4802;51.494;6.770;2023-06-14T08:49:31;31.60;99.90
9527;DHT22;4802;51.494;6.770;2023-06-14T08:52:05;32.60;99.90
9527;DHT22;4802;51.494;6.770;2023-06-14T08:54:41;31.90;99.90
9527;DHT22;4802;51.494;6.770;2023-06-14T08:57:16;31.80;99.90
9527;DHT22;4802;51.494;6.770;2023-06-14T08:59:48;30.30;99.90
9527;DHT22;4802;51.494;6.770;2023-06-14T09:02:21;30.30;99.90
9527;DHT22;4802;51.494;6.770;2023-06-14T09:04:49;31.50;99.90
9527;DHT22;4802;51.494;6.770;2023-06-14T09:07:18;31.80;99.90
9527;DHT22;4802;51.494;6.770;2023-06-14T09:09:48;32.40;99.90
9527;DHT22;4802;51.494;6.770;2023-06-14T09:12:33;32.10;99.90
9527;DHT22;4802;51.494;6.770;2023-06-14T09:15:04;31.30;99.90
9527;DHT22;4802;51.494;6.770;2023-06-14T09:17:35;31.90;99.90
9527;DHT22;4802;51.494;6.770;2023-06-14T09:20:06;30.90;99.90
9527;DHT22;4802;51.494;6.770;2023-06-14T09:22:37;30.90;99.90
9527;DHT22;4802;51.494;6.770;2023-06-14T09:25:07;31.40;99.90
9527;DHT22;4802;51.494;6.770;2023-06-14T09:27:51;31.70;99.90
9527;DHT22;4802;51.494;6.770;2023-06-14T09:30:22;32.30;99.90
9527;DHT22;4802;51.494;6.770;2023-06-14T09:32:51;31.00;99.90
9527;DHT22;4802;51.494;6.770;2023-06-14T09:35:20;31.30;99.90
9527;DHT22;4802;51.494;6.770;2023-06-14T09:37:50;30.60;99.90
9527;DHT22;4802;51.494;6.770;2023-06-14T09:40:21;30.20;99.90
9527;DHT22;4802;51.494;6.770;2023-06-14T09:42:50;29.90;99.90
9527;DHT22;4802;51.494;6.770;2023-06-14T09:45:22;29.10;99.90
9527;DHT22;4802;51.494;6.770;2023-06-14T09:47:51;29.80;99.90
9527;DHT22;4802;51.494;6.770;2023-06-14T09:50:33;30.50;99.90
9527;DHT22;4802;51.494;6.770;2023-06-14T09:53:05;30.40;99.90
9527;DHT22;4802;51.494;6.770;2023-06-14T09:55:36;30.70;99.90
9527;DHT22;4802;51.494;6.770;2023-06-14T09:58:07;30.70;99.90
9527;DHT22;4802;51.494;6.770;2023-06-14T10:00:39;29.90;99.90
9527;DHT22;4802;51.494;6.770;2023-06-14T10:03:13;29.20;99.90
9527;DHT22;4802;51.494;6.770;2023-06-14T10:05:45;27.60;99.90
9527;DHT22;4802;51.494;6.770;2023-06-14T10:08:15;28.10;99.90
9527;DHT22;4802;51.494;6.770;2023-06-14T10:10:46;28.10;99.90
9527;DHT22;4802;51.494;6.770;2023-06-14T10:13:16;28.70;99.90
9527;DHT22;4802;51.494;6.770;2023-06-14T10:15:55;28.00;99.90
9527;DHT22;4802;51.494;6.770;2023-06-14T10:18:33;26.80;99.90
9527;DHT22;4802;51.494;6.770;2023-06-14T10:21:12;26.80;99.90
9527;DHT22;4802;51.494;6.770;2023-06-14T10:23:44;26.10;99.90
9527;DHT22;4802;51.494;6.770;2023-06-14T10:26:22;26.50;99.90
9527;DHT22;4802;51.494;6.770;2023-06-14T10:28:58;26.80;99.90
9527;DHT22;4802;51.494;6.770;2023-06-14T10:31:44;26.70;99.90
9527;DHT22;4802;51.494;6.770;2023-06-14T10:34:22;27.30;99.90
9527;DHT22;4802;51.494;6.770;2023-06-14T10:37:03;27.50;99.90
9527;DHT22;4802;51.494;6.770;2023-06-14T10:39:38;26.30;99.90
9527;DHT22;4802;51.494;6.770;2023-06-14T10:42:08;26.20;99.90
9527;DHT22;4802;51.494;6.770;2023-06-14T10:44:42;26.60;99.90
9527;DHT22;4802;51.494;6.770;2023-06-14T10:47:26;26.50;99.90
9527;DHT22;4802;51.494;6.770;2023-06-14T10:49:57;26.40;99.90
9527;DHT22;4802;51.494;6.770;2023-06-14T10:52:28;26.70;99.90
9527;DHT22;4802;51.494;6.770;2023-06-14T10:55:03;26.70;99.90
9527;DHT22;4802;51.494;6.770;2023-06-14T10:57:38;26.70;99.90
9527;DHT22;4802;51.494;6.770;2023-06-14T11:00:12;25.80;99.90
9527;DHT22;4802;51.494;6.770;2023-06-14T11:02:52;25.70;99.90
9527;DHT22;4802;51.494;6.770;2023-06-14T11:05:28;24.90;99.90
9527;DHT22;4802;51.494;6.770;2023-06-14T11:08:37;25.80;99.90
9527;DHT22;4802;51.494;6.770;2023-06-14T11:11:09;25.70;99.90
9527;DHT22;4802;51.494;6.770;2023-06-14T11:13:41;25.30;99.90
9527;DHT22;4802;51.494;6.770;2023-06-14T11:16:11;25.10;99.90
9527;DHT22;4802;51.494;6.770;2023-06-14T11:18:49;25.50;99.90
9527;DHT22;4802;51.494;6.770;2023-06-14T11:21:21;26.40;99.90
9527;DHT22;4802;51.494;6.770;2023-06-14T11:23:55;26.60;99.90
9527;DHT22;4802;51.494;6.770;2023-06-14T11:26:30;26.40;99.90
9527;DHT22;4802;51.494;6.770;2023-06-14T11:29:02;25.30;99.90
9527;DHT22;4802;51.494;6.770;2023-06-14T11:31:33;24.70;99.90
9527;DHT22;4802;51.494;6.770;2023-06-14T11:34:09;25.00;99.90
9527;DHT22;4802;51.494;6.770;2023-06-14T11:36:41;24.50;99.90
9527;DHT22;4802;51.494;6.770;2023-06-14T11:39:24;24.70;99.90
9527;DHT22;4802;51.494;6.770;2023-06-14T11:41:56;24.10;99.90
9527;DHT22;4802;51.494;6.770;2023-06-14T11:44:29;23.90;99.90
9527;DHT22;4802;51.494;6.770;2023-06-14T11:47:04;25.00;99.90
9527;DHT22;4802;51.494;6.770;2023-06-14T11:49:48;25.50;99.90
9527;DHT22;4802;51.494;6.770;2023-06-14T11:52:22;25.80;99.90
9527;DHT22;4802;51.494;6.770;2023-06-14T11:54:52;26.00;99.90
9527;DHT22;4802;51.494;6.770;2023-06-14T11:57:23;26.00;99.90
9527;DHT22;4802;51.494;6.770;2023-06-14T11:59:58;26.00;99.90
9527;DHT22;4802;51.494;6.770;2023-06-14T12:02:27;24.80;99.90
9527;DHT22;4802;51.494;6.770;2023-06-14T12:05:07;25.00;99.90
9527;DHT22;4802;51.494;6.770;2023-06-14T12:07:41;25.00;99.90
9527;DHT22;4802;51.494;6.770;2023-06-14T12:10:14;24.90;99.90
9527;DHT22;4802;51.494;6.770;2023-06-14T12:12:46;24.80;99.90
9527;DHT22;4802;51.494;6.770;2023-06-14T12:15:16;25.00;99.90
9527;DHT22;4802;51.494;6.770;2023-06-14T12:17:47;25.90;99.90
9527;DHT22;4802;51.494;6.770;2023-06-14T12:20:20;26.40;99.90
9527;DHT22;4802;51.494;6.770;2023-06-14T12:22:52;26.60;99.90
9527;DHT22;4802;51.494;6.770;2023-06-14T12:25:28;26.20;99.90
9527;DHT22;4802;51.494;6.770;2023-06-14T12:28:09;25.90;99.90
9527;DHT22;4802;51.494;6.770;2023-06-14T12:30:39;24.80;99.90
9527;DHT22;4802;51.494;6.770;2023-06-14T12:33:09;24.50;99.90
9527;DHT22;4802;51.494;6.770;2023-06-14T12:35:42;23.40;99.90
9527;DHT22;4802;51.494;6.770;2023-06-14T12:38:14;24.40;99.90
9527;DHT22;4802;51.494;6.770;2023-06-14T12:40:47;25.00;99.90
9527;DHT22;4802;51.494;6.770;2023-06-14T12:43:21;24.80;99.90
9527;DHT22;4802;51.494;6.770;2023-06-14T12:45:51;24.60;99.90
9527;DHT22;4802;51.494;6.770;2023-06-14T12:48:26;25.00;99.90
9527;DHT22;4802;51.494;6.770;2023-06-14T12:51:00;25.00;99.90
9527;DHT22;4802;51.494;6.770;2023-06-14T12:53:30;24.80;99.90
9527;DHT22;4802;51.494;6.770;2023-06-14T12:55:59;24.60;99.90
9527;DHT22;4802;51.494;6.770;2023-06-14T12:58:28;24.40;99.90
9527;DHT22;4802;51.494;6.770;2023-06-14T13:00:57;24.80;99.90
9527;DHT22;4802;51.494;6.770;2023-06-14T13:03:26;25.10;99.90
9527;DHT22;4802;51.494;6.770;2023-06-14T13:05:59;25.30;99.90
9527;DHT22;4802;51.494;6.770;2023-06-14T13:08:31;25.40;99.90
9527;DHT22;4802;51.494;6.770;2023-06-14T13:11:02;25.60;99.90
9527;DHT22;4802;51.494;6.770;2023-06-14T13:13:32;25.70;99.90
9527;DHT22;4802;51.494;6.770;2023-06-14T13:16:02;25.80;99.90
9527;DHT22;4802;51.494;6.770;2023-06-14T13:18:31;25.80;99.90
9527;DHT22;4802;51.494;6.770;2023-06-14T13:21:04;25.40;99.90
9527;DHT22;4802;51.494;6.770;2023-06-14T13:23:33;25.00;99.90
9527;DHT22;4802;51.494;6.770;2023-06-14T13:26:03;24.90;99.90
9527;DHT22;4802;51.494;6.770;2023-06-14T13:28:32;24.80;99.90
9527;DHT22;4802;51.494;6.770;2023-06-14T13:31:04;24.80;99.90
9527;DHT22;4802;51.494;6.770;2023-06-14T13:33:34;25.10;99.90
9527;DHT22;4802;51.494;6.770;2023-06-14T13:36:06;25.20;99.90
9527;DHT22;4802;51.494;6.770;2023-06-14T13:38:36;25.50;99.90
9527;DHT22;4802;51.494;6.770;2023-06-14T13:41:08;25.60;99.90
9527;DHT22;4802;51.494;6.770;2023-06-14T13:43:38;25.70;99.90
9527;DHT22;4802;51.494;6.770;2023-06-14T13:46:11;25.80;99.90
9527;DHT22;4802;51.494;6.770;2023-06-14T13:48:41;25.40;99.90
9527;DHT22;4802;51.494;6.770;2023-06-14T13:51:14;25.00;99.90
9527;DHT22;4802;51.494;6.770;2023-06-14T13:53:48;25.20;99.90
9527;DHT22;4802;51.494;6.770;2023-06-14T13:56:19;25.00;99.90
9527;DHT22;4802;51.494;6.770;2023-06-14T13:58:51;25.30;99.90
9527;DHT22;4802;51.494;6.770;2023-06-14T14:01:21;25.50;99.90
9527;DHT22;4802;51.494;6.770;2023-06-14T14:03:54;25.70;99.90
9527;DHT22;4802;51.494;6.770;2023-06-14T14:06:28;25.30;99.90
9527;DHT22;4802;51.494;6.770;2023-06-14T14:08:57;25.10;99.90
9527;DHT22;4802;51.494;6.770;2023-06-14T14:11:26;25.20;99.90
9527;DHT22;4802;51.494;6.770;2023-06-14T14:13:59;25.10;99.90
9527;DHT22;4802;51.494;6.770;2023-06-14T14:16:29;24.70;99.90
9527;DHT22;4802;51.494;6.770;2023-06-14T14:19:01;24.60;99.90
9527;DHT22;4802;51.494;6.770;2023-06-14T14:21:32;24.80;99.90
9527;DHT22;4802;51.494;6.770;2023-06-14T14:24:02;24.90;99.90
9527;DHT22;4802;51.494;6.770;2023-06-14T14:26:33;24.70;99.90
9527;DHT22;4802;51.494;6.770;2023-06-14T14:29:02;24.80;99.90
9527;DHT22;4802;51.494;6.770;2023-06-14T14:31:32;25.10;99.90
9527;DHT22;4802;51.494;6.770;2023-06-14T14:34:02;25.10;99.90
9527;DHT22;4802;51.494;6.770;2023-06-14T14:36:33;25.20;99.90
9527;DHT22;4802;51.494;6.770;2023-06-14T14:39:05;25.40;99.90
9527;DHT22;4802;51.494;6.770;2023-06-14T14:41:37;25.40;99.90
9527;DHT22;4802;51.494;6.770;2023-06-14T14:44:08;25.30;99.90
9527;DHT22;4802;51.494;6.770;2023-06-14T14:46:39;25.30;99.90
9527;DHT22;4802;51.494;6.770;2023-06-14T14:49:11;25.20;99.90
9527;DHT22;4802;51.494;6.770;2023-06-14T14:51:45;25.20;99.90
9527;DHT22;4802;51.494;6.770;2023-06-14T14:54:15;25.10;99.90
9527;DHT22;4802;51.494;6.770;2023-06-14T14:56:46;25.40;99.90
9527;DHT22;4802;51.494;6.770;2023-06-14T14:59:18;25.40;99.90
9527;DHT22;4802;51.494;6.770;2023-06-14T15:01:49;25.10;99.90
9527;DHT22;4802;51.494;6.770;2023-06-14T15:04:18;25.20;99.90
9527;DHT22;4802;51.494;6.770;2023-06-14T15:06:51;25.30;99.90
9527;DHT22;4802;51.494;6.770;2023-06-14T15:09:22;25.40;99.90
9527;DHT22;4802;51.494;6.770;2023-06-14T15:11:52;25.50;99.90
9527;DHT22;4802;51.494;6.770;2023-06-14T15:14:23;25.60;99.90
9527;DHT22;4802;51.494;6.770;2023-06-14T15:16:53;25.50;99.90
9527;DHT22;4802;51.494;6.770;2023-06-14T15:19:26;24.80;99.90
9527;DHT22;4802;51.494;6.770;2023-06-14T15:22:04;24.90;99.90
9527;DHT22;4802;51.494;6.770;2023-06-14T15:24:34;25.00;99.90
9527;DHT22;4802;51.494;6.770;2023-06-14T15:27:10;25.10;99.90
9527;DHT22;4802;51.494;6.770;2023-06-14T15:29:42;25.30;99.90
9527;DHT22;4802;51.494;6.770;2023-06-14T15:32:17;25.50;99.90
9527;DHT22;4802;51.494;6.770;2023-06-14T15:56:36;25.00;99.90
9527;DHT22;4802;51.494;6.770;2023-06-14T15:59:06;25.10;99.90
9527;DHT22;4802;51.494;6.770;2023-06-14T16:01:35;25.10;99.90
9527;DHT22;4802;51.494;6.770;2023-06-14T16:04:08;25.20;99.90
9527;DHT22;4802;51.494;6.770;2023-06-14T16:06:37;25.20;99.90
9527;DHT22;4802;51.494;6.770;2023-06-14T16:09:08;25.40;99.90
9527;DHT22;4802;51.494;6.770;2023-06-14T16:11:38;25.10;99.90
9527;DHT22;4802;51.494;6.770;2023-06-14T16:14:13;25.10;99.90
9527;DHT22;4802;51.494;6.770;2023-06-14T16:16:43;24.50;99.90
9527;DHT22;4802;51.494;6.770;2023-06-14T16:19:15;25.30;99.90
9527;DHT22;4802;51.494;6.770;2023-06-14T16:21:46;25.40;99.90
9527;DHT22;4802;51.494;6.770;2023-06-14T16:24:15;25.40;99.90
9527;DHT22;4802;51.494;6.770;2023-06-14T16:26:50;25.10;99.90
9527;DHT22;4802;51.494;6.770;2023-06-14T16:29:21;25.30;99.90
9527;DHT22;4802;51.494;6.770;2023-06-14T16:31:59;25.20;99.90
9527;DHT22;4802;51.494;6.770;2023-06-14T16:34:29;25.10;99.90
9527;DHT22;4802;51.494;6.770;2023-06-14T16:37:00;25.00;99.90
9527;DHT22;4802;51.494;6.770;2023-06-14T16:39:40;24.90;99.90
9527;DHT22;4802;51.494;6.770;2023-06-14T16:42:18;24.80;99.90
9527;DHT22;4802;51.494;6.770;2023-06-14T16:44:51;25.30;99.90
9527;DHT22;4802;51.494;6.770;2023-06-14T16:47:30;25.10;99.90
9527;DHT22;4802;51.494;6.770;2023-06-14T16:50:06;25.10;99.90
9527;DHT22;4802;51.494;6.770;2023-06-14T16:52:36;24.90;99.90
9527;DHT22;4802;51.494;6.770;2023-06-14T16:55:24;25.10;99.90